Terminal Aerodrome Forecast
Issued by NWS

Home | Current Version | Previous Version | Text Only | Print | Product List | Glossary On
Versions: 1 2 3 4 5 6 7 8 9 10 11 12 13 14 15 16 17 18 19 20 21 22 23 24 25 26 27
339
FTUS46 KMTR 261120
TAFSFO
TAF
KSFO 261120Z 2612/2718 24009KT P6SM OVC011
     FM261700 26012KT P6SM SCT016
      TEMPO 2617/2618 BKN016
     FM262000 27016G24KT P6SM FEW020
     FM270400 27012KT P6SM FEW015
     FM270700 25007KT P6SM BKN012
     FM271000 24005KT P6SM OVC011
     FM271500 VRB03KT P6SM SCT015=

USA.gov is the U.S. government's official web portal to all federal, state and local government web resources and services.